SV2BBO-2 Thessaloniki GR current weather conditions

sailwx.info

Wind from 212 at 3 knots gusting 4

Air temperature 11.7° C
Dewpoint -2.5° C

Last reported at 2015-Jan-29 13:51 UTC.
Time now 2015-Jan-29 14:21 UTC

Location: N 40°38' E 022°57'.
View on Google Maps.

See reports from other nearby stations

  
Tides and Currents Weather Stations Pressure Air Temp Water Temp Dewpoint Dewpoint Depression Visibility Wind Speed Wind Dir Waves Ship Positions
date/time (UTC)wind fromknots sea level pressurealtimeterstation pressurevisibilityair tempwater tempwave heightnotes
2015-Jan-29 13:51 212 3 gusting 4 11.7
2015-Jan-29 13:41 213 2 gusting 2 11.7
2015-Jan-29 13:31 212 2 gusting 3 11.7
2015-Jan-29 13:21 212 11.7
2015-Jan-29 13:11 212 11.7
2015-Jan-29 13:01 224 2 gusting 4 11.7
2015-Jan-29 12:51 192 1 gusting 3 11.7
2015-Jan-29 12:41 187 2 gusting 3 11.7
2015-Jan-29 12:31 195 2 gusting 3 11.7
2015-Jan-29 12:21 232 3 gusting 4 11.7
2015-Jan-29 12:11 198 2 gusting 3 11.7
2015-Jan-29 12:01 222 4 gusting 5 12.2
2015-Jan-29 11:51 201 3 gusting 5 12.2
2015-Jan-29 11:41 198 2 gusting 5 12.8
2015-Jan-29 11:31 154 3 gusting 4 12.8
2015-Jan-29 11:21 170 3 gusting 3 12.2
2015-Jan-29 11:11 124 3 gusting 4 11.7
2015-Jan-29 11:01 139 2 gusting 5 11.1
2015-Jan-29 10:51 068 4 gusting 6 11.7
2015-Jan-29 10:41 063 4 gusting 6 11.1
2015-Jan-29 10:31 099 2 gusting 5 11.7
2015-Jan-29 10:21 090 3 gusting 5 11.1
2015-Jan-29 10:11 091 3 gusting 6 11.1
2015-Jan-29 10:01 114 11.1
2015-Jan-29 09:51 026 2 gusting 3 11.7
2015-Jan-29 09:41 162 4 gusting 6 11.7
2015-Jan-29 09:31 131 3 gusting 5 11.7
2015-Jan-29 09:21 154 3 gusting 5 11.1
2015-Jan-29 09:11 109 3 gusting 6 11.1
2015-Jan-29 09:01 147 4 gusting 6 11.1
2015-Jan-29 08:51 165 4 gusting 5 11.1
2015-Jan-29 08:41 166 4 gusting 5 11.1
2015-Jan-29 08:31 149 2 gusting 4 11.1
2015-Jan-29 08:21 150 11.1
2015-Jan-29 08:11 115 2 gusting 2 10.6
2015-Jan-29 08:01 125 3 gusting 4 10.6
2015-Jan-29 07:51 130 3 gusting 5 10.6
2015-Jan-29 07:41 127 2 gusting 3 10.6
2015-Jan-29 07:31 200 2 gusting 2 10.6
2015-Jan-29 07:21 106 2 gusting 5 10.0
2015-Jan-29 07:07 077 2 gusting 3 10.0
2015-Jan-29 06:57 073 3 gusting 7 10.0
2015-Jan-29 06:47 075 3 gusting 5 10.0
2015-Jan-29 05:47 332 1 gusting 3 10.0
2015-Jan-29 05:37 149 1 gusting 2 10.0
2015-Jan-29 05:27 180 3 gusting 3 10.0
2015-Jan-29 05:17 216 0 gusting 3 9.4
2015-Jan-29 05:07 348 3 gusting 3 9.4
2015-Jan-29 04:57 267 0 9.4
2015-Jan-29 04:47 220 9.4
2015-Jan-29 04:37 231 3 gusting 4 9.4
2015-Jan-29 04:27 200 1 gusting 2 9.4
2015-Jan-29 04:17 181 9.4
2015-Jan-29 04:07 245 9.4
2015-Jan-29 03:57 146 9.4
2015-Jan-29 03:47 095 2 gusting 2 9.4
2015-Jan-29 03:37 189 2 gusting 3 9.4
2015-Jan-29 03:27 230 9.4
2015-Jan-29 03:17 168 0 gusting 2 9.4
2015-Jan-29 03:07 150 9.4
2015-Jan-29 02:57 177 2 gusting 5 9.4
2015-Jan-29 02:47 144 9.4
2015-Jan-29 02:37 276 9.4
2015-Jan-29 02:27 003 2 gusting 2 8.9
2015-Jan-29 02:17 305 9.4
2015-Jan-29 02:07 301 2 gusting 5 9.4
2015-Jan-29 01:57 346 1 gusting 2 8.9
2015-Jan-29 01:47 033 3 gusting 5 9.4
2015-Jan-29 01:37 356 4 gusting 5 9.4
2015-Jan-29 01:27 005 5 gusting 7 8.9
2015-Jan-29 01:17 040 3 gusting 4 8.9
2015-Jan-29 01:07 035 6 gusting 7 8.9
2015-Jan-29 00:57 048 4 gusting 8 9.4
2015-Jan-29 00:47 348 2 gusting 3 9.4
2015-Jan-29 00:37 340 3 gusting 5 9.4
2015-Jan-29 00:27 359 4 gusting 5 9.4
2015-Jan-29 00:17 059 2 gusting 4 9.4
2015-Jan-29 00:07 002 4 gusting 6 9.4
2015-Jan-28 23:57 032 4 gusting 6 9.4
2015-Jan-28 23:47 010 5 gusting 5 9.4
2015-Jan-28 23:37 035 5 gusting 7 9.4
2015-Jan-28 23:27 042 2 gusting 5 9.4
2015-Jan-28 23:17 028 2 gusting 4 9.4
2015-Jan-28 23:07 047 5 gusting 6 9.4
2015-Jan-28 22:57 035 9.4
2015-Jan-28 22:47 009 9.4
2015-Jan-28 22:37 352 2 gusting 4 10.0
2015-Jan-28 22:27 325 2 gusting 3 10.0
2015-Jan-28 22:17 051 9.4
2015-Jan-28 22:07 051 10.0
2015-Jan-28 21:57 051 10.0
2015-Jan-28 21:47 050 10.0
2015-Jan-28 21:37 050 10.0
2015-Jan-28 21:27 051 10.0
2015-Jan-28 21:17 051 10.0
2015-Jan-28 21:07 056 10.0
2015-Jan-28 20:57 055 10.6
2015-Jan-28 20:47 025 10.0
2015-Jan-28 20:37 353 10.0
2015-Jan-28 20:27 054 2 gusting 3 10.0
2015-Jan-28 20:17 357 1 gusting 2 10.6
2015-Jan-28 20:07 004 3 gusting 4 10.0
2015-Jan-28 19:57 010 0 gusting 3 10.6
2015-Jan-28 19:47 045 2 gusting 3 10.6
2015-Jan-28 19:37 062 0 10.0
2015-Jan-28 19:27 101 0 10.0
2015-Jan-28 19:17 045 2 gusting 3 10.0
2015-Jan-28 19:07 044 2 gusting 3 10.0
2015-Jan-28 18:57 051 10.0
2015-Jan-28 18:47 095 0 gusting 2 10.0
2015-Jan-28 18:37 052 3 gusting 3 9.4
2015-Jan-28 18:27 040 10.0
2015-Jan-28 18:17 046 10.0
2015-Jan-28 18:07 357 10.6
2015-Jan-28 17:57 330 10.6
2015-Jan-28 17:47 219 10.6
2015-Jan-28 17:37 033 10.6
2015-Jan-28 17:27 355 1 gusting 3 10.6
2015-Jan-28 17:17 352 1 gusting 5 10.6
2015-Jan-28 17:07 049 10.0
2015-Jan-28 16:57 336 2 10.0
2015-Jan-28 16:47 035 3 gusting 5 9.4
2015-Jan-28 16:37 057 4 gusting 7 10.0
2015-Jan-28 16:27 047 0 gusting 2 10.0
2015-Jan-28 16:17 092 2 gusting 3 10.0
2015-Jan-28 16:07 003 3 10.0
2015-Jan-28 15:57 041 3 gusting 6 10.6
2015-Jan-28 15:47 047 3 gusting 5 10.6
2015-Jan-28 15:37 160 2 gusting 2 11.7
2015-Jan-28 15:27 104 2 gusting 3 11.7
2015-Jan-28 15:17 145 2 gusting 3 11.7
2015-Jan-28 15:07 167 3 gusting 4 11.7
2015-Jan-28 14:57 129 2 gusting 3 11.7
2015-Jan-28 14:47 151 3 gusting 5 11.7
2015-Jan-28 14:37 142 4 gusting 6 11.7
2015-Jan-28 14:27 144 5 gusting 5 12.2
2015-Jan-28 14:17 102 4 gusting 3 12.8
2015-Jan-28 14:07 063 0 gusting 3 12.8
2015-Jan-28 13:57 340 12.8
2015-Jan-28 13:47 020 2 gusting 5 12.8
2015-Jan-28 13:37 356 3 gusting 5 12.8
2015-Jan-28 13:27 345 4 gusting 6 12.8
2015-Jan-28 13:17 344 4 gusting 5 12.8
2015-Jan-28 13:07 292 2 gusting 3 12.8
2015-Jan-28 12:57 313 3 gusting 3 12.8
2015-Jan-28 12:47 002 3 gusting 5 12.2
2015-Jan-28 12:37 355 4 gusting 5 12.2
2015-Jan-28 12:27 357 5 gusting 6 12.8
2015-Jan-28 12:17 003 2 gusting 4 13.3
2015-Jan-28 12:07 299 3 gusting 5 12.8
2015-Jan-28 11:57 321 2 gusting 5 12.2
2015-Jan-28 11:47 295 2 gusting 6 12.8
2015-Jan-28 11:37 318 5 gusting 6 12.8
2015-Jan-28 11:27 359 3 gusting 3 12.2
2015-Jan-28 11:17 311 3 gusting 5 12.2
2015-Jan-28 11:07 306 4 gusting 5 12.2
2015-Jan-28 10:57 342 3 gusting 5 12.2
2015-Jan-28 10:47 012 1 gusting 4 12.2
2015-Jan-28 10:37 331 3 gusting 6 12.2
2015-Jan-28 10:27 317 3 gusting 5 12.2
2015-Jan-28 10:17 340 11.7
2015-Jan-28 10:07 014 1 gusting 5 11.7
2015-Jan-28 09:57 176 1 gusting 3 11.7
2015-Jan-28 09:47 176 11.7
2015-Jan-28 09:37 175 2 gusting 3 11.7
2015-Jan-28 09:27 043 11.1
2015-Jan-28 09:17 347 2 gusting 3 10.6
2015-Jan-28 09:07 039 2 gusting 5 10.6
2015-Jan-28 08:57 046 2 gusting 2 10.6
2015-Jan-28 08:47 071 10.6
2015-Jan-28 08:37 071 10.0
2015-Jan-28 08:27 071 10.0
2015-Jan-28 08:17 071 10.0
2015-Jan-28 08:07 070 10.0
2015-Jan-28 07:57 211 9.4
2015-Jan-28 07:47 211 1 gusting 2 9.4
2015-Jan-28 07:37 275 3 gusting 3 8.9
2015-Jan-28 07:27 047 8.9
2015-Jan-28 07:17 052 2 gusting 3 8.9
2015-Jan-28 07:07 066 8.9
2015-Jan-28 06:57 173 8.9
2015-Jan-28 06:47 202 9.4
2015-Jan-28 05:37 035 8.3
2015-Jan-28 05:27 046 8.3
2015-Jan-28 05:17 045 8.3
2015-Jan-28 05:07 095 8.3
2015-Jan-28 04:57 068 2 gusting 3 8.3
2015-Jan-28 04:47 041 4 gusting 5 7.8
2015-Jan-28 04:37 041 4 gusting 10 7.8
2015-Jan-28 04:27 018 6 gusting 10 7.8
2015-Jan-28 04:17 027 6 gusting 7 7.8
2015-Jan-28 04:07 010 6 gusting 7 7.8
2015-Jan-28 03:57 023 5 gusting 6 7.8
2015-Jan-28 03:47 002 6 gusting 9 7.8
2015-Jan-28 03:37 048 5 gusting 5 7.2
2015-Jan-28 03:27 050 5 gusting 6 7.8
2015-Jan-28 03:17 050 3 gusting 5 7.8
2015-Jan-28 03:07 038 4 gusting 5 7.8
2015-Jan-28 02:57 041 3 gusting 4 8.3
2015-Jan-28 02:47 057 8.3
2015-Jan-28 02:37 057 8.3
2015-Jan-28 02:27 057 8.3
2015-Jan-28 02:17 047 1 gusting 3 7.8
2015-Jan-28 02:07 047 2 gusting 2 8.3
2015-Jan-28 01:57 358 8.3
2015-Jan-28 01:47 311 8.3
2015-Jan-28 01:37 104 8.3
2015-Jan-28 01:27 104 8.3
2015-Jan-28 01:17 104 8.3
2015-Jan-28 01:07 104 8.3
2015-Jan-28 00:57 104 8.3
2015-Jan-28 00:47 104 8.3
2015-Jan-28 00:37 107 8.3
2015-Jan-28 00:27 108 8.9
2015-Jan-28 00:17 108 8.9
2015-Jan-28 00:07 244 8.9
2015-Jan-27 23:57 023 8.9
2015-Jan-27 23:47 023 8.9
2015-Jan-27 23:37 016 8.9
2015-Jan-27 23:27 357 9.4
2015-Jan-27 23:17 353 9.4
2015-Jan-27 23:07 353 9.4
2015-Jan-27 22:57 353 10.0
2015-Jan-27 22:47 353 10.0
2015-Jan-27 22:37 353 2 gusting 3 10.0
2015-Jan-27 22:27 002 2 gusting 4 10.0
2015-Jan-27 22:17 197 10.0
2015-Jan-27 22:07 197 10.0
2015-Jan-27 21:57 198 1 gusting 3 10.0
2015-Jan-27 21:47 145 10.0
2015-Jan-27 21:37 145 10.0
2015-Jan-27 21:27 147 10.6
2015-Jan-27 21:17 122 3 gusting 3 10.6
2015-Jan-27 21:07 200 3 gusting 3 10.6
2015-Jan-27 20:57 111 10.0
2015-Jan-27 20:47 049 10.0
2015-Jan-27 20:37 049 10.0
2015-Jan-27 20:27 049 10.6
2015-Jan-27 20:17 045 1 gusting 2 10.6
2015-Jan-27 20:07 015 2 gusting 3 10.6
2015-Jan-27 19:57 078 10.6
2015-Jan-27 19:47 081 10.6
2015-Jan-27 19:37 082 0 10.6
2015-Jan-27 19:27 015 10.6
2015-Jan-27 19:17 355 3 gusting 4 10.6
2015-Jan-27 19:07 326 0 gusting 3 10.6
2015-Jan-27 18:57 340 2 gusting 2 10.6
2015-Jan-27 18:47 047 4 gusting 5 10.6
2015-Jan-27 18:37 003 4 gusting 5 10.6
2015-Jan-27 18:27 021 3 gusting 5 10.0
2015-Jan-27 18:17 028 4 gusting 4 10.6
2015-Jan-27 18:07 030 4 gusting 6 11.1
2015-Jan-27 17:57 343 11.7
2015-Jan-27 17:47 220 11.7
2015-Jan-27 17:37 220 11.7
2015-Jan-27 17:27 147 1 gusting 3 11.7
2015-Jan-27 17:17 121 11.7
2015-Jan-27 17:07 061 1 11.7
2015-Jan-27 16:57 145 0 11.7
2015-Jan-27 16:47 049 11.7
2015-Jan-27 16:37 040 0 11.1
2015-Jan-27 16:27 059 2 gusting 3 11.7
2015-Jan-27 16:07 159 11.7
2015-Jan-27 15:57 159 11.7
2015-Jan-27 15:47 159 11.7
2015-Jan-27 15:37 159 11.7
2015-Jan-27 15:27 222 11.7
2015-Jan-27 15:17 216 11.7
2015-Jan-27 15:07 186 12.2
2015-Jan-27 14:57 186 12.8
2015-Jan-27 14:47 186 1 gusting 2 12.2
2015-Jan-27 14:37 186 1 gusting 2 11.7
2015-Jan-27 14:27 153 11.7
2015-Jan-27 14:17 153 11.7
2015-Jan-27 14:07 230 11.1